Time;durP1;ratioP1;P1;durP2;ratioP2;P2;SDS_P1;SDS_P2;PMS_P1;PMS_P2;Temp;Humidity;BMP_temperature;BMP_pressure;BME280_temperature;BME280_humidity;BME280_pressure;Samples;Min_cycle;Max_cycle;Signal;HPM_P1;HPM_P2
2021/01/02 00:02:15;;;;;;;;;;;27.50;40.10;;;;;;5095631;28;19965;-69
2021/01/02 00:04:46;;;;;;;;;;;27.40;40.40;;;;;;5095501;28;19988;-70
2021/01/02 00:07:14;;;;;;;;;;;27.30;40.40;;;;;;5088729;28;19927;-66
2021/01/02 00:09:43;;;;;;;;;;;27.20;40.80;;;;;;5091825;28;20439;-76
2021/01/02 00:12:14;;;;;;;;;;;27.20;41.00;;;;;;5066873;28;19991;-72
2021/01/02 00:14:58;;;;;;;;;;;27.20;41.10;;;;;;5073847;28;19959;-78
2021/01/02 00:17:42;;;;;;;;;;;27.20;41.10;;;;;;5075181;28;19909;-76
2021/01/02 00:20:12;;;;;;;;;;;27.30;41.10;;;;;;5074796;28;20405;-75
2021/01/02 00:22:47;;;;;;;;;;;27.30;41.10;;;;;;5074966;28;19915;-78
2021/01/02 00:25:13;;;;;;;;;;;27.40;41.20;;;;;;5080366;28;20378;-79
2021/01/02 00:27:39;;;;;;;;;;;27.30;41.20;;;;;;5077983;28;20419;-73
2021/01/02 00:30:05;;;;;;;;;;;27.40;41.20;;;;;;5077039;28;19913;-77
2021/01/02 00:32:34;;;;;;;;;;;27.30;41.30;;;;;;5074549;28;19912;-73
2021/01/02 00:35:05;;;;;;;;;;;27.40;41.30;;;;;;5087213;28;20412;-72
2021/01/02 00:37:40;;;;;;;;;;;27.40;41.30;;;;;;5094572;28;19912;-71
2021/01/02 00:40:06;;;;;;;;;;;27.40;41.40;;;;;;5094729;28;19923;-63
2021/01/02 00:42:32;;;;;;;;;;;27.40;41.40;;;;;;5094642;28;19908;-61
2021/01/02 00:44:59;;;;;;;;;;;27.40;41.50;;;;;;5094617;28;20366;-62
2021/01/02 00:47:28;;;;;;;;;;;27.40;41.60;;;;;;5078177;28;19920;-65
2021/01/02 00:49:56;;;;;;;;;;;27.40;41.60;;;;;;5070177;28;19954;-78
2021/01/02 00:52:40;;;;;;;;;;;27.30;41.70;;;;;;5074232;28;19918;-74
2021/01/02 00:55:06;;;;;;;;;;;27.20;42.00;;;;;;5073903;28;20433;-67
2021/01/02 00:57:36;;;;;;;;;;;27.20;42.00;;;;;;5075407;28;20000;-65
2021/01/02 01:00:05;;;;;;;;;;;27.20;41.90;;;;;;5090993;28;19916;-66
2021/01/02 01:02:31;;;;;;;;;;;27.30;41.80;;;;;;5086709;28;19963;-68
2021/01/02 01:04:56;;;;;;;;;;;27.20;41.90;;;;;;5073816;28;19951;-65
2021/01/02 01:07:21;;;;;;;;;;;27.00;42.00;;;;;;5073632;28;19920;-62
2021/01/02 01:09:48;;;;;;;;;;;27.10;42.00;;;;;;5089747;28;19915;-62
2021/01/02 01:12:13;;;;;;;;;;;27.20;42.00;;;;;;5073717;28;19908;-63
2021/01/02 01:14:39;;;;;;;;;;;27.20;41.80;;;;;;5089639;28;19915;-66
2021/01/02 01:17:04;;;;;;;;;;;27.30;41.80;;;;;;5078291;28;19919;-63
2021/01/02 01:19:29;;;;;;;;;;;27.30;41.90;;;;;;5091702;28;19919;-61
2021/01/02 01:21:58;;;;;;;;;;;27.30;41.80;;;;;;5089363;28;19912;-69
2021/01/02 01:24:30;;;;;;;;;;;27.30;41.90;;;;;;5073407;28;19909;-77
2021/01/02 01:27:10;;;;;;;;;;;27.30;41.90;;;;;;5089040;28;19927;-65
2021/01/02 01:29:38;;;;;;;;;;;27.40;42.00;;;;;;5090925;28;19913;-67
2021/01/02 01:32:03;;;;;;;;;;;27.40;42.00;;;;;;5077920;28;20378;-71
2021/01/02 01:34:30;;;;;;;;;;;27.30;42.00;;;;;;5089285;28;19955;-70
2021/01/02 01:36:55;;;;;;;;;;;27.30;42.00;;;;;;5088989;28;19977;-68
2021/01/02 01:39:22;;;;;;;;;;;27.40;42.00;;;;;;5073589;28;20415;-68
2021/01/02 01:41:50;;;;;;;;;;;27.40;42.10;;;;;;5073532;28;19919;-73
2021/01/02 01:44:19;;;;;;;;;;;27.30;42.10;;;;;;5089048;28;19920;-67
2021/01/02 01:46:48;;;;;;;;;;;27.30;42.10;;;;;;5086247;28;19941;-64
2021/01/02 01:49:14;;;;;;;;;;;27.40;42.20;;;;;;5093340;28;19915;-68
2021/01/02 01:51:50;;;;;;;;;;;27.30;42.80;;;;;;5085045;28;19913;-61
2021/01/02 01:54:34;;;;;;;;;;;27.20;42.40;;;;;;5092217;28;19954;-63
2021/01/02 01:57:03;;;;;;;;;;;27.10;43.00;;;;;;5090099;28;20384;-64
2021/01/02 01:59:42;;;;;;;;;;;27.20;42.40;;;;;;5093243;28;20412;-63
2021/01/02 02:02:13;;;;;;;;;;;27.20;42.30;;;;;;5073235;28;20419;-63
2021/01/02 02:05:00;;;;;;;;;;;27.20;42.20;;;;;;5073171;28;19908;-63
2021/01/02 02:07:39;;;;;;;;;;;27.20;42.10;;;;;;5072840;28;20362;-63
2021/01/02 02:10:05;;;;;;;;;;;27.10;42.10;;;;;;5072919;28;19944;-63
2021/01/02 02:12:31;;;;;;;;;;;27.10;42.00;;;;;;5072894;28;19950;-63
2021/01/02 02:14:59;;;;;;;;;;;27.10;42.00;;;;;;5075562;28;19912;-63
2021/01/02 02:17:26;;;;;;;;;;;27.10;42.00;;;;;;5093317;28;19915;-63
2021/01/02 02:19:55;;;;;;;;;;;27.10;42.00;;;;;;5093253;28;19908;-63
2021/01/02 02:22:23;;;;;;;;;;;27.00;42.00;;;;;;5076162;28;19912;-63
2021/01/02 02:24:50;;;;;;;;;;;26.90;42.00;;;;;;5072744;28;19909;-63
2021/01/02 02:27:15;;;;;;;;;;;26.90;41.80;;;;;;5072780;28;19951;-63
2021/01/02 02:29:49;;;;;;;;;;;26.90;42.00;;;;;;5086712;28;20367;-63
2021/01/02 02:32:14;;;;;;;;;;;26.90;41.90;;;;;;5069580;28;20000;-64
2021/01/02 02:34:40;;;;;;;;;;;26.90;42.00;;;;;;5068173;28;19960;-64
2021/01/02 02:37:05;;;;;;;;;;;26.90;41.90;;;;;;5058510;28;19920;-63
2021/01/02 02:39:31;;;;;;;;;;;26.80;42.00;;;;;;5072969;28;20364;-63
2021/01/02 02:41:58;;;;;;;;;;;26.80;42.00;;;;;;5072840;28;19916;-63
2021/01/02 02:44:36;;;;;;;;;;;26.70;42.10;;;;;;5072650;28;19916;-63
2021/01/02 02:47:02;;;;;;;;;;;26.80;42.10;;;;;;5082057;28;19942;-63
2021/01/02 02:49:32;;;;;;;;;;;26.70;42.10;;;;;;5075453;28;20290;-64
2021/01/02 02:52:04;;;;;;;;;;;26.70;42.10;;;;;;5072412;28;20321;-63
2021/01/02 02:54:30;;;;;;;;;;;26.70;42.70;;;;;;5072775;28;19940;-64
2021/01/02 02:56:55;;;;;;;;;;;26.70;42.10;;;;;;5083851;28;20371;-63
2021/01/02 02:59:21;;;;;;;;;;;26.60;42.10;;;;;;5072541;28;19966;-63
2021/01/02 03:01:49;;;;;;;;;;;26.60;42.10;;;;;;5086012;28;20007;-63
2021/01/02 03:04:15;;;;;;;;;;;26.60;42.20;;;;;;5087645;28;19912;-63
2021/01/02 03:06:41;;;;;;;;;;;26.60;42.10;;;;;;5092745;28;19917;-64
2021/01/02 03:09:06;;;;;;;;;;;26.60;42.20;;;;;;5087588;28;19916;-63
2021/01/02 03:11:32;;;;;;;;;;;26.50;42.10;;;;;;5087563;28;19916;-63
2021/01/02 03:13:57;;;;;;;;;;;26.50;42.10;;;;;;5087846;28;19916;-63
2021/01/02 03:16:23;;;;;;;;;;;26.50;42.20;;;;;;5090954;28;20437;-63
2021/01/02 03:18:48;;;;;;;;;;;26.40;42.20;;;;;;5092451;28;19912;-63
2021/01/02 03:21:14;;;;;;;;;;;26.40;42.30;;;;;;5085504;28;19917;-63
2021/01/02 03:23:40;;;;;;;;;;;26.40;42.30;;;;;;5073318;28;20282;-63
2021/01/02 03:26:05;;;;;;;;;;;26.40;42.30;;;;;;5092515;28;20263;-63
2021/01/02 03:28:31;;;;;;;;;;;26.40;42.30;;;;;;5078026;28;19921;-63
2021/01/02 03:30:56;;;;;;;;;;;26.40;42.30;;;;;;5080665;28;19913;-63
2021/01/02 03:33:25;;;;;;;;;;;26.40;42.30;;;;;;5075808;28;19909;-63
2021/01/02 03:35:51;;;;;;;;;;;26.40;42.40;;;;;;5082550;28;20006;-63
2021/01/02 03:38:16;;;;;;;;;;;26.30;42.30;;;;;;5095807;28;20405;-63
2021/01/02 03:40:42;;;;;;;;;;;26.30;42.30;;;;;;5090677;28;20008;-63
2021/01/02 03:43:07;;;;;;;;;;;26.30;42.30;;;;;;5096008;28;20293;-63
2021/01/02 03:45:32;;;;;;;;;;;26.30;42.30;;;;;;5091154;28;19919;-63
2021/01/02 03:47:58;;;;;;;;;;;26.30;42.30;;;;;;5075586;28;19917;-63
2021/01/02 03:50:23;;;;;;;;;;;26.30;42.20;;;;;;5077965;28;20270;-63
2021/01/02 03:52:49;;;;;;;;;;;26.30;42.20;;;;;;5075981;28;19912;-63
2021/01/02 03:55:14;;;;;;;;;;;26.30;42.30;;;;;;5084680;28;20417;-63
2021/01/02 03:57:40;;;;;;;;;;;26.30;42.20;;;;;;5081994;28;19912;-63
2021/01/02 04:00:06;;;;;;;;;;;26.30;42.20;;;;;;5088836;28;20374;-64
2021/01/02 04:02:31;;;;;;;;;;;26.30;42.10;;;;;;5075106;28;19944;-63
2021/01/02 04:04:57;;;;;;;;;;;26.30;42.10;;;;;;5075299;28;19915;-63
2021/01/02 04:07:22;;;;;;;;;;;26.30;42.20;;;;;;5076211;28;20348;-63
2021/01/02 04:09:48;;;;;;;;;;;26.30;42.20;;;;;;5075346;28;19916;-63
2021/01/02 04:12:13;;;;;;;;;;;26.20;42.10;;;;;;5092987;28;20010;-63
2021/01/02 04:14:38;;;;;;;;;;;26.20;42.10;;;;;;5095417;28;20044;-63
2021/01/02 04:17:04;;;;;;;;;;;26.20;42.20;;;;;;5078042;28;20294;-63
2021/01/02 04:19:32;;;;;;;;;;;26.20;42.10;;;;;;5074839;28;19922;-63
2021/01/02 04:21:58;;;;;;;;;;;26.20;42.20;;;;;;5078235;28;19919;-63
2021/01/02 04:24:23;;;;;;;;;;;26.20;42.10;;;;;;5080727;28;19912;-63
2021/01/02 04:26:49;;;;;;;;;;;26.20;42.70;;;;;;5087353;28;19927;-63
2021/01/02 04:29:14;;;;;;;;;;;26.20;42.00;;;;;;5092951;28;19990;-63
2021/01/02 04:31:40;;;;;;;;;;;26.10;42.00;;;;;;5094085;28;20285;-63
2021/01/02 04:34:06;;;;;;;;;;;26.10;42.00;;;;;;5074481;28;19912;-63
2021/01/02 04:36:32;;;;;;;;;;;26.10;42.00;;;;;;5073556;28;20007;-63
2021/01/02 04:38:57;;;;;;;;;;;26.10;42.00;;;;;;5074398;28;20359;-63
2021/01/02 04:41:23;;;;;;;;;;;26.10;42.00;;;;;;5085608;28;19920;-63
2021/01/02 04:43:49;;;;;;;;;;;26.10;41.90;;;;;;5094775;28;19908;-63
2021/01/02 04:46:14;;;;;;;;;;;26.20;41.90;;;;;;5084118;28;20447;-63
2021/01/02 04:48:44;;;;;;;;;;;26.20;41.90;;;;;;5074510;28;20000;-63
2021/01/02 04:51:10;;;;;;;;;;;26.20;41.90;;;;;;5077714;28;19913;-63
2021/01/02 04:53:35;;;;;;;;;;;26.10;41.90;;;;;;5092227;28;19920;-63
2021/01/02 04:56:01;;;;;;;;;;;26.10;41.90;;;;;;5082359;28;19912;-63
2021/01/02 04:58:26;;;;;;;;;;;26.10;41.80;;;;;;5088486;28;20025;-63
2021/01/02 05:00:52;;;;;;;;;;;26.10;41.80;;;;;;5089887;28;19909;-63
2021/01/02 05:03:18;;;;;;;;;;;26.10;41.80;;;;;;5073810;28;20003;-63
2021/01/02 05:05:48;;;;;;;;;;;26.10;41.80;;;;;;5092455;28;20003;-63
2021/01/02 05:08:13;;;;;;;;;;;26.10;41.80;;;;;;5093131;28;19922;-63
2021/01/02 05:10:38;;;;;;;;;;;26.10;41.80;;;;;;5089025;28;19912;-63
2021/01/02 05:13:08;;;;;;;;;;;26.10;41.70;;;;;;5073689;28;19913;-63
2021/01/02 05:15:33;;;;;;;;;;;26.10;41.80;;;;;;5077623;28;20290;-63
2021/01/02 05:17:59;;;;;;;;;;;26.10;41.80;;;;;;5093934;28;19908;-63
2021/01/02 05:20:24;;;;;;;;;;;26.10;41.70;;;;;;5082805;28;19913;-63
2021/01/02 05:22:49;;;;;;;;;;;26.00;41.80;;;;;;5088528;28;20278;-63
2021/01/02 05:25:19;;;;;;;;;;;26.00;41.70;;;;;;5076655;28;19913;-63
2021/01/02 05:27:45;;;;;;;;;;;26.00;41.80;;;;;;5075882;28;19978;-63
2021/01/02 05:30:31;;;;;;;;;;;26.10;41.70;;;;;;5092554;28;19936;-63
2021/01/02 05:32:56;;;;;;;;;;;26.00;41.70;;;;;;5073071;28;19999;-63
2021/01/02 05:35:22;;;;;;;;;;;26.00;41.70;;;;;;5086053;28;19966;-63
2021/01/02 05:37:48;;;;;;;;;;;26.00;41.80;;;;;;5073671;28;20318;-63
2021/01/02 05:40:32;;;;;;;;;;;26.00;41.70;;;;;;5074663;28;19916;-63
2021/01/02 05:42:58;;;;;;;;;;;26.00;41.70;;;;;;5093727;28;19912;-63
2021/01/02 05:45:23;;;;;;;;;;;26.00;41.80;;;;;;5088549;28;20322;-64
2021/01/02 05:47:49;;;;;;;;;;;25.90;41.60;;;;;;5088610;28;20434;-63
2021/01/02 05:50:15;;;;;;;;;;;26.00;41.70;;;;;;5080313;28;19913;-63
2021/01/02 05:52:40;;;;;;;;;;;25.90;41.60;;;;;;5068636;28;20358;-63
2021/01/02 05:55:06;;;;;;;;;;;26.00;41.60;;;;;;5079813;28;19982;-63
2021/01/02 05:57:32;;;;;;;;;;;25.90;41.70;;;;;;5073855;28;20401;-63
2021/01/02 05:59:57;;;;;;;;;;;25.90;41.50;;;;;;5053327;28;19909;-63
2021/01/02 06:02:26;;;;;;;;;;;25.90;41.60;;;;;;5053160;28;20426;-63
2021/01/02 06:04:55;;;;;;;;;;;25.90;41.60;;;;;;5073657;28;19917;-63
2021/01/02 06:07:20;;;;;;;;;;;25.90;41.50;;;;;;5077411;28;19920;-63
2021/01/02 06:09:46;;;;;;;;;;;25.90;41.50;;;;;;5093067;28;19961;-63
2021/01/02 06:12:11;;;;;;;;;;;25.90;41.50;;;;;;5091251;28;19981;-63
2021/01/02 06:14:37;;;;;;;;;;;25.90;41.50;;;;;;5068913;28;19920;-63
2021/01/02 06:17:03;;;;;;;;;;;26.00;41.60;;;;;;5068669;28;19912;-63
2021/01/02 06:19:29;;;;;;;;;;;25.90;41.50;;;;;;5059874;28;19934;-63
2021/01/02 06:21:54;;;;;;;;;;;25.90;41.50;;;;;;5093041;28;19916;-63
2021/01/02 06:24:20;;;;;;;;;;;26.00;41.50;;;;;;5082236;28;19931;-63
2021/01/02 06:26:45;;;;;;;;;;;25.90;41.50;;;;;;5072670;28;19989;-63
2021/01/02 06:29:11;;;;;;;;;;;25.90;41.50;;;;;;5087535;28;19928;-63
2021/01/02 06:31:36;;;;;;;;;;;25.90;41.50;;;;;;5093213;28;20368;-63
2021/01/02 06:34:04;;;;;;;;;;;25.90;41.50;;;;;;5092852;28;20009;-63
2021/01/02 06:36:30;;;;;;;;;;;25.90;41.50;;;;;;5092363;28;19912;-63
2021/01/02 06:39:14;;;;;;;;;;;25.90;41.50;;;;;;5091905;28;19908;-63
2021/01/02 06:41:40;;;;;;;;;;;25.90;41.50;;;;;;5072962;28;20320;-63
2021/01/02 06:44:05;;;;;;;;;;;25.90;41.60;;;;;;5087954;28;20057;-63
2021/01/02 06:46:33;;;;;;;;;;;25.90;41.50;;;;;;5082135;28;19935;-63
2021/01/02 06:48:59;;;;;;;;;;;25.90;41.60;;;;;;5093035;28;19915;-63
2021/01/02 06:51:25;;;;;;;;;;;25.90;41.50;;;;;;5075454;28;19912;-63
2021/01/02 06:53:50;;;;;;;;;;;25.90;41.50;;;;;;5079282;28;19912;-63
2021/01/02 06:56:16;;;;;;;;;;;25.90;41.50;;;;;;5092975;28;20372;-63
2021/01/02 06:58:44;;;;;;;;;;;25.90;41.50;;;;;;5079378;28;20370;-63
2021/01/02 07:01:15;;;;;;;;;;;25.90;41.40;;;;;;5075704;28;19909;-63
2021/01/02 07:03:44;;;;;;;;;;;25.90;41.40;;;;;;5083521;28;19920;-63
2021/01/02 07:06:24;;;;;;;;;;;25.90;41.40;;;;;;5096353;28;19912;-63
2021/01/02 07:08:59;;;;;;;;;;;25.80;41.40;;;;;;5093003;28;19952;-63
2021/01/02 07:11:31;;;;;;;;;;;25.90;41.50;;;;;;5066651;28;19918;-63
2021/01/02 07:14:17;;;;;;;;;;;25.90;41.50;;;;;;5096329;28;19919;-63
2021/01/02 07:16:43;;;;;;;;;;;25.80;41.50;;;;;;5096052;28;19995;-63
2021/01/02 07:19:27;;;;;;;;;;;25.80;41.50;;;;;;5096443;28;19955;-63
2021/01/02 07:21:58;;;;;;;;;;;25.90;41.50;;;;;;5094772;28;19912;-63
2021/01/02 07:24:27;;;;;;;;;;;25.80;41.50;;;;;;5084535;28;20069;-63
2021/01/02 07:27:00;;;;;;;;;;;25.80;41.50;;;;;;5089672;28;19920;-63
2021/01/02 07:29:25;;;;;;;;;;;25.80;41.40;;;;;;5076953;28;19920;-63
2021/01/02 07:31:51;;;;;;;;;;;25.80;41.40;;;;;;5088157;28;19934;-63
2021/01/02 07:34:20;;;;;;;;;;;25.80;41.40;;;;;;5096156;28;19944;-63
2021/01/02 07:36:45;;;;;;;;;;;25.80;41.40;;;;;;5095834;28;20362;-63
2021/01/02 07:39:11;;;;;;;;;;;25.80;41.40;;;;;;5092053;28;19920;-63
2021/01/02 07:41:37;;;;;;;;;;;25.80;41.30;;;;;;5082658;28;19923;-63
2021/01/02 07:44:03;;;;;;;;;;;25.80;41.30;;;;;;5080871;28;19913;-63
2021/01/02 07:46:28;;;;;;;;;;;25.80;41.30;;;;;;5055626;28;19917;-63
2021/01/02 07:48:54;;;;;;;;;;;25.90;41.30;;;;;;5070851;28;19999;-63
2021/01/02 07:51:20;;;;;;;;;;;25.80;41.30;;;;;;5066638;28;19965;-63
2021/01/02 07:53:51;;;;;;;;;;;25.80;41.30;;;;;;5081989;28;19920;-63
2021/01/02 07:56:35;;;;;;;;;;;25.80;41.30;;;;;;5095756;28;19987;-63
2021/01/02 07:59:19;;;;;;;;;;;25.90;41.30;;;;;;5055183;28;20301;-63
2021/01/02 08:01:48;;;;;;;;;;;25.90;41.30;;;;;;5055141;28;19999;-63
2021/01/02 08:04:14;;;;;;;;;;;25.80;41.20;;;;;;5064965;28;19912;-63
2021/01/02 08:06:46;;;;;;;;;;;25.80;41.30;;;;;;5077026;28;20291;-63
2021/01/02 08:09:12;;;;;;;;;;;25.80;41.20;;;;;;5060854;28;19919;-63
2021/01/02 08:11:38;;;;;;;;;;;25.80;41.30;;;;;;5075052;28;20281;-63
2021/01/02 08:14:03;;;;;;;;;;;25.70;41.20;;;;;;5074828;28;19909;-63
2021/01/02 08:16:29;;;;;;;;;;;25.80;41.20;;;;;;5089952;28;19912;-63
2021/01/02 08:19:04;;;;;;;;;;;25.80;41.20;;;;;;5094997;28;19962;-63
2021/01/02 08:21:29;;;;;;;;;;;25.80;41.20;;;;;;5082965;28;19912;-63
2021/01/02 08:23:55;;;;;;;;;;;25.80;41.20;;;;;;5076040;28;19917;-63
2021/01/02 08:26:21;;;;;;;;;;;25.70;41.10;;;;;;5074448;28;19916;-63
2021/01/02 08:28:47;;;;;;;;;;;25.70;41.10;;;;;;5086252;28;19929;-63
2021/01/02 08:31:13;;;;;;;;;;;25.80;41.20;;;;;;5074608;28;20321;-63
2021/01/02 08:33:39;;;;;;;;;;;25.80;41.10;;;;;;5074419;28;19909;-63
2021/01/02 08:36:05;;;;;;;;;;;25.70;41.10;;;;;;5081358;28;19924;-63
2021/01/02 08:38:30;;;;;;;;;;;25.70;41.10;;;;;;5069862;28;20306;-63
2021/01/02 08:40:56;;;;;;;;;;;25.70;41.10;;;;;;5081772;28;19923;-63
2021/01/02 08:43:22;;;;;;;;;;;25.80;41.10;;;;;;5094453;28;19908;-63
2021/01/02 08:45:47;;;;;;;;;;;25.80;41.10;;;;;;5094517;28;19908;-63
2021/01/02 08:48:13;;;;;;;;;;;25.80;41.10;;;;;;5081829;28;19928;-63
2021/01/02 08:50:39;;;;;;;;;;;25.80;41.00;;;;;;5074450;28;19908;-63
2021/01/02 08:53:04;;;;;;;;;;;25.80;41.10;;;;;;5079146;28;19912;-63
2021/01/02 08:55:30;;;;;;;;;;;25.70;41.00;;;;;;5076690;28;20450;-63
2021/01/02 08:57:55;;;;;;;;;;;25.70;40.90;;;;;;5084724;28;19928;-63
2021/01/02 09:00:21;;;;;;;;;;;25.70;41.10;;;;;;5074030;28;20347;-63
2021/01/02 09:02:47;;;;;;;;;;;25.70;41.00;;;;;;5073850;28;20401;-63
2021/01/02 09:05:13;;;;;;;;;;;25.70;41.10;;;;;;5059431;28;19920;-63
2021/01/02 09:07:38;;;;;;;;;;;25.80;41.10;;;;;;5066561;28;19920;-63
2021/01/02 09:10:20;;;;;;;;;;;25.80;41.10;;;;;;5085626;28;19912;-63
2021/01/02 09:12:58;;;;;;;;;;;25.70;41.00;;;;;;5094306;28;19919;-63
2021/01/02 09:15:43;;;;;;;;;;;25.70;41.60;;;;;;5090551;28;19916;-63
2021/01/02 09:18:08;;;;;;;;;;;25.70;41.00;;;;;;5073648;28;20380;-63
2021/01/02 09:20:34;;;;;;;;;;;25.70;41.10;;;;;;5089455;28;19912;-63
2021/01/02 09:22:59;;;;;;;;;;;25.70;41.10;;;;;;5085150;28;19999;-63
2021/01/02 09:25:32;;;;;;;;;;;25.70;41.00;;;;;;5073801;28;19915;-63
2021/01/02 09:28:17;;;;;;;;;;;25.70;40.90;;;;;;5074355;28;19972;-63
2021/01/02 09:30:43;;;;;;;;;;;25.70;41.00;;;;;;5073069;28;20254;-63
2021/01/02 09:33:09;;;;;;;;;;;25.70;41.00;;;;;;5073475;28;19909;-63
2021/01/02 09:35:35;;;;;;;;;;;25.70;40.90;;;;;;5080464;28;20324;-63
2021/01/02 09:38:01;;;;;;;;;;;25.70;41.00;;;;;;5093586;28;19915;-63
2021/01/02 09:40:26;;;;;;;;;;;25.70;41.00;;;;;;5081543;28;19927;-63
2021/01/02 09:42:52;;;;;;;;;;;25.70;40.90;;;;;;5093648;28;20362;-63
2021/01/02 09:45:17;;;;;;;;;;;25.70;40.90;;;;;;5093662;28;20358;-63
2021/01/02 09:47:43;;;;;;;;;;;25.70;40.90;;;;;;5093650;28;19916;-63
2021/01/02 09:50:08;;;;;;;;;;;25.70;40.90;;;;;;5092245;28;20379;-63
2021/01/02 09:52:34;;;;;;;;;;;25.70;40.90;;;;;;5084275;28;19919;-63
2021/01/02 09:54:59;;;;;;;;;;;25.70;40.80;;;;;;5073340;28;19912;-63
2021/01/02 09:57:25;;;;;;;;;;;25.70;40.70;;;;;;5079170;28;20355;-63
2021/01/02 09:59:50;;;;;;;;;;;25.70;40.80;;;;;;5073328;28;19909;-63
2021/01/02 10:02:16;;;;;;;;;;;25.70;40.70;;;;;;5072966;28;20015;-64
2021/01/02 10:04:45;;;;;;;;;;;25.70;41.30;;;;;;5074246;28;19962;-63
2021/01/02 10:07:10;;;;;;;;;;;25.70;40.70;;;;;;5074403;28;19935;-63
2021/01/02 10:09:45;;;;;;;;;;;25.70;40.70;;;;;;5087871;28;19999;-63
2021/01/02 10:12:11;;;;;;;;;;;25.70;40.80;;;;;;5089712;28;19913;-63
2021/01/02 10:14:36;;;;;;;;;;;25.70;40.80;;;;;;5072786;28;19948;-64
2021/01/02 10:17:02;;;;;;;;;;;25.70;40.80;;;;;;5080489;28;20006;-64
2021/01/02 10:19:27;;;;;;;;;;;26.00;40.30;;;;;;5092973;28;19908;-64
2021/01/02 10:21:53;;;;;;;;;;;26.10;40.10;;;;;;5087572;28;19919;-64
2021/01/02 10:24:18;;;;;;;;;;;26.20;39.90;;;;;;5072685;28;19916;-64
2021/01/02 10:26:44;;;;;;;;;;;26.30;39.90;;;;;;5080126;28;19920;-59
2021/01/02 10:29:09;;;;;;;;;;;26.40;40.30;;;;;;5072556;28;20329;-63
2021/01/02 10:31:35;;;;;;;;;;;26.50;40.40;;;;;;5073909;28;19913;-61
2021/01/02 10:34:00;;;;;;;;;;;26.60;40.70;;;;;;5072634;28;19913;-51
2021/01/02 10:36:26;;;;;;;;;;;26.70;40.40;;;;;;5079999;28;20011;-51
2021/01/02 10:38:51;;;;;;;;;;;26.80;40.10;;;;;;5097178;28;19919;-60
2021/01/02 10:41:17;;;;;;;;;;;26.80;40.00;;;;;;5086291;28;20400;-63
2021/01/02 10:43:42;;;;;;;;;;;26.80;39.80;;;;;;5076425;28;19913;-59
2021/01/02 10:46:08;;;;;;;;;;;26.90;39.80;;;;;;5085485;28;19912;-60
2021/01/02 10:48:33;;;;;;;;;;;27.00;39.70;;;;;;5096838;28;19912;-60
2021/01/02 10:50:59;;;;;;;;;;;27.00;39.60;;;;;;5093368;28;20350;-65
2021/01/02 10:53:24;;;;;;;;;;;27.00;39.50;;;;;;5080295;28;19917;-61
2021/01/02 10:55:50;;;;;;;;;;;27.10;39.50;;;;;;5077777;28;19920;-55
2021/01/02 10:58:15;;;;;;;;;;;27.10;39.40;;;;;;5081899;28;19962;-60
2021/01/02 11:00:40;;;;;;;;;;;27.10;39.40;;;;;;5088835;28;19935;-63
2021/01/02 11:03:06;;;;;;;;;;;27.10;39.40;;;;;;5096288;28;19923;-65
2021/01/02 11:05:31;;;;;;;;;;;27.10;39.40;;;;;;5084374;28;19959;-60
2021/01/02 11:07:57;;;;;;;;;;;27.10;39.40;;;;;;5096301;28;19920;-62
2021/01/02 11:10:23;;;;;;;;;;;27.10;39.40;;;;;;5093116;28;19920;-49
2021/01/02 11:12:48;;;;;;;;;;;27.10;39.40;;;;;;5075846;28;19920;-54
2021/01/02 11:15:14;;;;;;;;;;;27.10;39.40;;;;;;5077290;28;19909;-62
2021/01/02 11:17:40;;;;;;;;;;;27.10;39.40;;;;;;5084953;28;19917;-70
2021/01/02 11:20:08;;;;;;;;;;;27.10;39.40;;;;;;5075857;28;19909;-71
2021/01/02 11:22:34;;;;;;;;;;;27.20;39.50;;;;;;5085756;28;19982;-62
2021/01/02 11:24:59;;;;;;;;;;;27.10;39.40;;;;;;5075648;28;20014;-61
2021/01/02 11:27:25;;;;;;;;;;;27.10;39.40;;;;;;5083603;28;19928;-65
2021/01/02 11:29:50;;;;;;;;;;;27.10;39.40;;;;;;5074554;28;20281;-62
2021/01/02 11:32:16;;;;;;;;;;;27.10;39.30;;;;;;5074375;28;19920;-63
2021/01/02 11:34:41;;;;;;;;;;;27.10;39.40;;;;;;5075569;28;19965;-62
2021/01/02 11:37:08;;;;;;;;;;;27.20;39.40;;;;;;5092256;28;20270;-53
2021/01/02 11:39:33;;;;;;;;;;;27.20;39.40;;;;;;5093443;28;19923;-56
2021/01/02 11:41:59;;;;;;;;;;;27.20;39.40;;;;;;5094831;28;19915;-61
2021/01/02 11:44:25;;;;;;;;;;;27.20;39.40;;;;;;5094467;28;20475;-55
2021/01/02 11:46:51;;;;;;;;;;;27.20;39.30;;;;;;5078807;28;20017;-53
2021/01/02 11:49:19;;;;;;;;;;;27.20;39.40;;;;;;5074096;28;20282;-61
2021/01/02 11:51:51;;;;;;;;;;;27.20;39.40;;;;;;5082113;28;20367;-54
2021/01/02 11:54:17;;;;;;;;;;;27.20;39.30;;;;;;5074216;28;19912;-62
2021/01/02 11:56:42;;;;;;;;;;;27.20;39.30;;;;;;5085933;28;19919;-60
2021/01/02 11:59:08;;;;;;;;;;;27.20;39.30;;;;;;5075380;28;19917;-68
2021/01/02 12:01:34;;;;;;;;;;;27.10;39.40;;;;;;5073982;28;19919;-58
2021/01/02 12:04:00;;;;;;;;;;;27.00;39.80;;;;;;5075171;28;19912;-63
2021/01/02 12:06:26;;;;;;;;;;;27.00;39.80;;;;;;5085268;28;19919;-63
2021/01/02 12:08:51;;;;;;;;;;;27.00;39.80;;;;;;5094054;28;20003;-63
2021/01/02 12:11:24;;;;;;;;;;;27.00;39.60;;;;;;5088656;28;19919;-63
2021/01/02 12:13:49;;;;;;;;;;;27.00;39.40;;;;;;5093929;28;19915;-63
2021/01/02 12:16:15;;;;;;;;;;;27.10;39.40;;;;;;5083658;28;19918;-63
2021/01/02 12:18:40;;;;;;;;;;;26.90;39.60;;;;;;5073894;28;19909;-63
2021/01/02 12:21:05;;;;;;;;;;;26.90;40.10;;;;;;5068831;28;19913;-63
2021/01/02 12:23:31;;;;;;;;;;;27.00;39.50;;;;;;5053884;28;19916;-64
2021/01/02 12:25:57;;;;;;;;;;;27.00;39.50;;;;;;5063111;28;20433;-62
2021/01/02 12:28:22;;;;;;;;;;;26.90;39.40;;;;;;5014342;28;1680762;-64
2021/01/02 12:30:47;;;;;;;;;;;26.90;39.70;;;;;;5080933;28;20332;-67
2021/01/02 12:33:13;;;;;;;;;;;26.80;39.70;;;;;;5087703;28;20011;-62
2021/01/02 12:35:38;;;;;;;;;;;26.70;39.80;;;;;;5075779;28;19912;-61
2021/01/02 12:38:04;;;;;;;;;;;26.70;40.00;;;;;;5089651;28;19920;-60
2021/01/02 12:40:29;;;;;;;;;;;26.70;39.90;;;;;;5094874;28;20349;-62
2021/01/02 12:42:55;;;;;;;;;;;26.80;39.70;;;;;;5094372;28;19909;-60
2021/01/02 12:45:20;;;;;;;;;;;26.90;39.60;;;;;;5091925;28;20045;-60
2021/01/02 12:47:46;;;;;;;;;;;26.90;39.60;;;;;;5074409;28;20287;-60
2021/01/02 12:50:11;;;;;;;;;;;26.90;39.60;;;;;;5075076;28;19991;-61
2021/01/02 12:52:37;;;;;;;;;;;26.90;39.50;;;;;;5081480;28;19916;-61
2021/01/02 12:55:03;;;;;;;;;;;26.90;39.40;;;;;;5074366;28;20001;-60
2021/01/02 12:57:29;;;;;;;;;;;26.90;39.40;;;;;;5053549;28;19909;-61
2021/01/02 12:59:55;;;;;;;;;;;26.90;39.40;;;;;;5054342;28;20358;-60
2021/01/02 13:02:20;;;;;;;;;;;26.90;39.40;;;;;;5092239;28;19951;-61
2021/01/02 13:04:46;;;;;;;;;;;27.00;39.40;;;;;;5079188;28;19956;-61
2021/01/02 13:07:11;;;;;;;;;;;27.00;39.40;;;;;;5078528;28;20377;-61
2021/01/02 13:09:37;;;;;;;;;;;27.00;39.40;;;;;;5091291;28;19970;-60
2021/01/02 13:12:03;;;;;;;;;;;26.90;39.40;;;;;;5094078;28;19915;-61
2021/01/02 13:14:29;;;;;;;;;;;26.90;39.50;;;;;;5094124;28;20243;-60
2021/01/02 13:16:54;;;;;;;;;;;26.80;39.70;;;;;;5089953;28;19912;-60
2021/01/02 13:19:20;;;;;;;;;;;26.90;39.70;;;;;;5094264;28;20362;-57
2021/01/02 13:21:50;;;;;;;;;;;26.90;39.50;;;;;;5081929;28;19923;-61
2021/01/02 13:24:15;;;;;;;;;;;26.80;39.70;;;;;;5094001;28;19908;-60
2021/01/02 13:26:41;;;;;;;;;;;26.90;39.70;;;;;;5086772;28;19931;-60
2021/01/02 13:29:07;;;;;;;;;;;26.90;39.70;;;;;;5088873;28;19973;-60
2021/01/02 13:31:40;;;;;;;;;;;26.90;39.60;;;;;;5085868;28;20019;-59
2021/01/02 13:34:06;;;;;;;;;;;26.90;39.60;;;;;;5087378;28;19940;-60
2021/01/02 13:36:31;;;;;;;;;;;26.90;39.80;;;;;;5086278;28;19912;-60
2021/01/02 13:38:57;;;;;;;;;;;26.90;39.80;;;;;;5081562;28;19924;-59
2021/01/02 13:41:25;;;;;;;;;;;26.80;39.70;;;;;;5073509;28;19908;-60
2021/01/02 13:43:51;;;;;;;;;;;26.80;39.70;;;;;;5072920;28;19919;-61
2021/01/02 13:46:17;;;;;;;;;;;26.90;39.80;;;;;;5083546;28;19912;-60
2021/01/02 13:48:42;;;;;;;;;;;26.90;39.80;;;;;;5093612;28;20479;-58
2021/01/02 13:51:09;;;;;;;;;;;26.80;39.70;;;;;;5084218;28;19916;-60
2021/01/02 13:53:34;;;;;;;;;;;26.80;39.70;;;;;;5089599;28;20006;-60
2021/01/02 13:56:00;;;;;;;;;;;26.80;39.80;;;;;;5090586;28;20039;-60
2021/01/02 13:58:25;;;;;;;;;;;26.80;40.00;;;;;;5083463;28;20360;-60
2021/01/02 14:00:51;;;;;;;;;;;26.80;40.00;;;;;;5093180;28;19988;-61
2021/01/02 14:03:16;;;;;;;;;;;26.70;40.10;;;;;;5091443;28;19927;-60
2021/01/02 14:05:41;;;;;;;;;;;26.70;40.30;;;;;;5088789;28;20398;-60
2021/01/02 14:08:07;;;;;;;;;;;26.70;40.10;;;;;;5091643;28;19921;-61
2021/01/02 14:10:32;;;;;;;;;;;26.80;40.10;;;;;;5072815;28;19908;-61
2021/01/02 14:12:58;;;;;;;;;;;26.80;40.10;;;;;;5073018;28;19908;-61
2021/01/02 14:15:23;;;;;;;;;;;26.80;40.00;;;;;;5075393;28;20366;-61
2021/01/02 14:17:49;;;;;;;;;;;26.90;40.10;;;;;;5093296;28;19961;-61